createdAt,value
2023-05-07T00:00:54.456Z,48.85
2023-05-07T00:03:04.018Z,48.99
2023-05-07T00:05:14.353Z,49.08
2023-05-07T00:07:27.243Z,49.04
2023-05-07T00:09:36.850Z,49.06
2023-05-07T00:11:56.109Z,49.26
2023-05-07T00:14:05.887Z,49.37
2023-05-07T00:16:22.900Z,49.55
2023-05-07T00:18:32.328Z,49.59
2023-05-07T00:21:02.246Z,49.54
2023-05-07T00:23:11.989Z,49.46
2023-05-07T00:25:21.917Z,49.42
2023-05-07T00:27:31.240Z,49.46
2023-05-07T00:29:40.505Z,49.26
2023-05-07T00:31:51.711Z,49.49
2023-05-07T00:34:00.982Z,49.38
2023-05-07T00:36:11.448Z,49.31
2023-05-07T00:38:20.716Z,49.15
2023-05-07T00:40:30.224Z,49.03
2023-05-07T00:42:43.143Z,49.06
2023-05-07T00:44:53.299Z,49.15
2023-05-07T00:47:04.802Z,49.34
2023-05-07T00:49:17.514Z,49.52
2023-05-07T00:51:29.277Z,49.59
2023-05-07T00:53:38.947Z,49.77
2023-05-07T00:55:48.506Z,50.05
2023-05-07T00:57:58.270Z,50.13
2023-05-07T01:00:27.794Z,50.39
2023-05-07T01:02:37.736Z,50.59
2023-05-07T01:04:50.516Z,50.85
2023-05-07T01:07:02.233Z,50.74
2023-05-07T01:09:10.566Z,51.17
2023-05-07T01:11:20.765Z,51.38
2023-05-07T01:13:30.516Z,51.39
2023-05-07T01:15:42.128Z,51.33
2023-05-07T01:17:51.903Z,51.26
2023-05-07T01:20:08.413Z,51.49
2023-05-07T01:22:22.899Z,51.51
2023-05-07T01:24:42.204Z,51.56
2023-05-07T01:26:51.496Z,51.86
2023-05-07T01:29:04.488Z,52.04
2023-05-07T01:31:25.177Z,52.06
2023-05-07T01:33:37.760Z,52.04
2023-05-07T01:35:50.632Z,52.12
2023-05-07T01:38:00.145Z,52.36
2023-05-07T01:40:14.349Z,52.72
2023-05-07T01:42:35.194Z,53.16
2023-05-07T01:44:48.627Z,53.37
2023-05-07T01:46:59.564Z,53.69
2023-05-07T01:49:09.075Z,54.20
2023-05-07T01:51:18.940Z,54.56
2023-05-07T01:53:29.663Z,55.06
2023-05-07T01:55:39.252Z,55.40
2023-05-07T01:57:48.475Z,55.86
2023-05-07T01:59:57.684Z,56.28
2023-05-07T02:02:18.149Z,56.76
2023-05-07T02:04:28.300Z,56.93
2023-05-07T02:06:41.356Z,57.04
2023-05-07T02:08:52.392Z,57.23
2023-05-07T02:11:01.956Z,57.42
2023-05-07T02:13:12.314Z,57.53
2023-05-07T02:15:25.427Z,57.84
2023-05-07T02:17:35.589Z,57.72
2023-05-07T02:19:48.158Z,58.03
2023-05-07T02:21:57.486Z,57.86
2023-05-07T02:24:13.060Z,58.06
2023-05-07T02:26:24.019Z,58.88
2023-05-07T02:28:33.319Z,59.81
2023-05-07T02:30:49.284Z,60.37
2023-05-07T02:32:58.947Z,60.77
2023-05-07T02:35:10.063Z,61.06
2023-05-07T02:37:39.742Z,61.36
2023-05-07T02:39:49.183Z,61.81
2023-05-07T02:41:58.359Z,61.94
2023-05-07T02:44:08.072Z,62.33
2023-05-07T02:46:18.457Z,62.64
2023-05-07T02:48:31.996Z,62.55
2023-05-07T02:50:41.418Z,62.59
2023-05-07T02:53:00.975Z,62.68
2023-05-07T02:55:22.283Z,62.86
2023-05-07T02:57:31.932Z,63.05
2023-05-07T02:59:41.448Z,63.24
2023-05-07T03:01:50.756Z,63.45
2023-05-07T03:04:00.023Z,63.70
2023-05-07T03:06:10.228Z,63.89
2023-05-07T03:08:19.946Z,63.95
2023-05-07T03:10:32.555Z,64.23
2023-05-07T03:12:42.088Z,64.13
2023-05-07T03:14:51.713Z,64.16
2023-05-07T03:17:01.015Z,64.35
2023-05-07T03:19:14.133Z,64.42
2023-05-07T03:21:23.574Z,64.49
2023-05-07T03:23:35.631Z,64.58
2023-05-07T03:25:45.086Z,64.66
2023-05-07T03:27:54.586Z,64.93
2023-05-07T03:30:05.638Z,65.00
2023-05-07T03:32:15.729Z,65.24
2023-05-07T03:34:25.244Z,65.29
2023-05-07T03:36:38.359Z,65.47
2023-05-07T03:38:51.333Z,65.59
2023-05-07T03:41:03.500Z,65.80
2023-05-07T03:43:13.432Z,65.76
2023-05-07T03:45:27.918Z,65.95
2023-05-07T03:47:44.421Z,66.11
2023-05-07T03:49:56.262Z,66.06
2023-05-07T03:52:06.820Z,66.16
2023-05-07T03:54:16.779Z,66.24
2023-05-07T03:56:29.700Z,66.29
2023-05-07T03:58:42.569Z,66.43
2023-05-07T04:00:55.167Z,66.62
2023-05-07T04:03:07.315Z,66.56
2023-05-07T04:05:17.532Z,66.66
2023-05-07T04:07:28.188Z,66.86
2023-05-07T04:09:37.683Z,67.03
2023-05-07T04:11:46.933Z,67.17
2023-05-07T04:13:59.094Z,67.46
2023-05-07T04:16:19.748Z,67.66
2023-05-07T04:18:29.309Z,67.71
2023-05-07T04:20:42.813Z,67.91
2023-05-07T04:22:53.504Z,68.03
2023-05-07T04:25:02.866Z,67.99
2023-05-07T04:27:13.650Z,67.99
2023-05-07T04:29:26.974Z,68.31
2023-05-07T04:31:36.796Z,68.02
2023-05-07T04:33:49.659Z,68.25
2023-05-07T04:35:59.076Z,68.42
2023-05-07T04:38:08.599Z,68.44
2023-05-07T04:40:18.974Z,68.28
2023-05-07T04:42:28.552Z,68.22
2023-05-07T04:44:38.603Z,68.43
2023-05-07T04:46:51.161Z,68.51
2023-05-07T04:49:00.737Z,68.65
2023-05-07T04:51:11.048Z,68.82
2023-05-07T04:53:20.720Z,68.67
2023-05-07T04:55:30.611Z,68.65
2023-05-07T04:57:40.990Z,68.71
2023-05-07T04:59:50.597Z,68.82
2023-05-07T05:02:00.013Z,68.68
2023-05-07T05:04:10.097Z,68.69
2023-05-07T05:06:19.544Z,68.98
2023-05-07T05:08:29.056Z,68.98
2023-05-07T05:10:43.035Z,69.00
2023-05-07T05:12:53.151Z,68.89
2023-05-07T05:15:23.212Z,68.95
2023-05-07T05:17:32.452Z,68.98
2023-05-07T05:19:45.260Z,69.08
2023-05-07T05:21:54.912Z,69.16
2023-05-07T05:24:12.752Z,69.31
2023-05-07T05:26:32.273Z,69.70
2023-05-07T05:28:41.784Z,69.62
2023-05-07T05:30:51.178Z,69.70
2023-05-07T05:33:11.088Z,69.71
2023-05-07T05:35:20.704Z,69.71
2023-05-07T05:37:31.577Z,69.88
2023-05-07T05:39:41.750Z,69.72
2023-05-07T05:41:51.292Z,69.80
2023-05-07T05:44:00.704Z,70.00
2023-05-07T05:46:21.372Z,70.02
2023-05-07T05:48:33.462Z,70.03
2023-05-07T05:50:44.670Z,70.21
2023-05-07T05:53:00.478Z,70.21
2023-05-07T05:55:29.829Z,70.41
2023-05-07T05:57:39.456Z,70.44
2023-05-07T05:59:49.167Z,70.25
2023-05-07T06:01:58.479Z,70.51
2023-05-07T06:04:08.339Z,70.45
2023-05-07T06:06:17.986Z,70.35
2023-05-07T06:08:27.433Z,70.01
2023-05-07T06:10:38.299Z,69.52
2023-05-07T06:12:48.481Z,69.04
2023-05-07T06:15:00.980Z,68.66
2023-05-07T06:17:10.865Z,68.52
2023-05-07T06:19:24.480Z,68.33
2023-05-07T06:21:34.417Z,68.20
2023-05-07T06:23:44.305Z,68.17
2023-05-07T06:25:54.833Z,67.69
2023-05-07T06:28:07.010Z,67.68
2023-05-07T06:30:18.861Z,67.59
2023-05-07T06:32:28.828Z,67.32
2023-05-07T06:34:38.341Z,67.34
2023-05-07T06:36:47.743Z,67.23
2023-05-07T06:39:14.929Z,67.03
2023-05-07T06:41:34.469Z,66.97
2023-05-07T06:43:49.719Z,66.95
2023-05-07T06:46:28.031Z,66.95
2023-05-07T06:48:37.433Z,67.06
2023-05-07T06:51:07.040Z,66.95
2023-05-07T06:53:16.423Z,66.93
2023-05-07T06:55:26.323Z,66.83
2023-05-07T06:57:35.693Z,66.97
2023-05-07T06:59:45.345Z,66.80
2023-05-07T07:02:04.818Z,66.82
2023-05-07T07:04:18.261Z,66.69
2023-05-07T07:06:33.211Z,66.60
2023-05-07T07:08:41.264Z,66.63
2023-05-07T07:10:50.605Z,66.59
2023-05-07T07:13:03.195Z,66.57
2023-05-07T07:15:16.250Z,66.47
2023-05-07T07:17:26.175Z,66.46
2023-05-07T07:19:37.401Z,66.32
2023-05-07T07:22:06.575Z,66.35
2023-05-07T07:24:22.598Z,66.51
2023-05-07T07:26:35.851Z,66.45
2023-05-07T07:28:56.624Z,66.45
2023-05-07T07:31:17.779Z,66.50
2023-05-07T07:33:27.710Z,66.62
2023-05-07T07:35:37.045Z,66.54
2023-05-07T07:37:47.612Z,66.39
2023-05-07T07:39:57.766Z,66.64
2023-05-07T07:42:07.970Z,66.38
2023-05-07T07:44:17.390Z,66.53
2023-05-07T07:46:30.886Z,66.62
2023-05-07T07:48:41.322Z,66.66
2023-05-07T07:50:53.571Z,66.61
2023-05-07T07:53:12.877Z,66.68
2023-05-07T07:55:25.669Z,66.64
2023-05-07T07:57:35.797Z,66.69
2023-05-07T07:59:45.651Z,66.49
2023-05-07T08:01:58.249Z,66.50
2023-05-07T08:04:09.442Z,66.45
2023-05-07T08:06:19.219Z,66.53
2023-05-07T08:08:29.110Z,66.53
2023-05-07T08:10:40.528Z,66.54
2023-05-07T08:12:58.557Z,66.68
2023-05-07T08:15:27.951Z,66.68
2023-05-07T08:17:37.730Z,66.76
2023-05-07T08:19:50.929Z,66.88
2023-05-07T08:22:00.302Z,66.84
2023-05-07T08:24:10.391Z,66.76
2023-05-07T08:26:22.914Z,66.84
2023-05-07T08:28:42.874Z,66.83
2023-05-07T08:30:52.370Z,66.70
2023-05-07T08:33:05.031Z,66.77
2023-05-07T08:35:15.145Z,66.93
2023-05-07T08:37:24.868Z,66.88
2023-05-07T08:39:34.231Z,66.92
2023-05-07T08:41:45.492Z,66.94
2023-05-07T08:43:58.166Z,67.03
2023-05-07T08:46:10.217Z,67.06
2023-05-07T08:48:32.238Z,67.24
2023-05-07T08:50:50.593Z,67.26
2023-05-07T08:53:01.458Z,67.53
2023-05-07T08:55:15.811Z,67.49
2023-05-07T08:57:25.994Z,67.64
2023-05-07T08:59:38.172Z,67.69
2023-05-07T09:01:48.045Z,67.96
2023-05-07T09:03:58.019Z,67.96
2023-05-07T09:06:18.206Z,68.10
2023-05-07T09:08:29.746Z,68.15
2023-05-07T09:10:41.999Z,68.43
2023-05-07T09:12:53.538Z,68.53
2023-05-07T09:15:04.198Z,68.60
2023-05-07T09:17:14.101Z,68.75
2023-05-07T09:19:32.969Z,68.60
2023-05-07T09:21:43.915Z,68.72
2023-05-07T09:23:57.957Z,69.08
2023-05-07T09:26:14.410Z,69.16
2023-05-07T09:28:35.517Z,69.30
2023-05-07T09:30:45.688Z,69.24
2023-05-07T09:32:56.264Z,69.31
2023-05-07T09:35:06.649Z,69.50
2023-05-07T09:37:19.022Z,69.49
2023-05-07T09:39:28.850Z,69.51
2023-05-07T09:41:45.960Z,69.76
2023-05-07T09:44:04.504Z,69.69
2023-05-07T09:46:21.682Z,69.73
2023-05-07T09:48:34.954Z,69.71
2023-05-07T09:50:51.217Z,69.81
2023-05-07T09:53:02.603Z,69.84
2023-05-07T09:55:14.371Z,69.84
2023-05-07T09:57:26.628Z,70.06
2023-05-07T09:59:40.216Z,69.90
2023-05-07T10:02:12.538Z,69.91
2023-05-07T10:04:28.420Z,69.89
2023-05-07T10:06:37.825Z,70.05
2023-05-07T10:08:48.132Z,70.12
2023-05-07T10:10:57.348Z,69.75
2023-05-07T10:13:12.062Z,69.94
2023-05-07T10:15:25.948Z,69.91
2023-05-07T10:17:38.126Z,69.79
2023-05-07T10:19:49.352Z,69.89
2023-05-07T10:22:04.677Z,69.74
2023-05-07T10:24:22.228Z,69.69
2023-05-07T10:26:33.789Z,69.47
2023-05-07T10:28:46.270Z,69.56
2023-05-07T10:31:07.995Z,69.58
2023-05-07T10:33:27.274Z,69.41
2023-05-07T10:35:41.937Z,69.21
2023-05-07T10:37:52.112Z,69.18
2023-05-07T10:40:01.762Z,69.01
2023-05-07T10:42:15.985Z,69.02
2023-05-07T10:44:33.030Z,69.00
2023-05-07T10:47:06.531Z,68.97
2023-05-07T10:49:16.550Z,69.07
2023-05-07T10:51:48.298Z,68.94
2023-05-07T10:54:28.063Z,68.83
2023-05-07T10:56:44.357Z,68.63
2023-05-07T10:59:46.582Z,68.54
2023-05-07T11:02:01.022Z,68.82
2023-05-07T11:04:25.876Z,68.50
2023-05-07T11:07:06.744Z,68.63
2023-05-07T11:09:20.334Z,68.66
2023-05-07T11:11:52.672Z,68.68
2023-05-07T11:14:10.539Z,68.53
2023-05-07T11:16:38.230Z,68.54
2023-05-07T11:19:13.503Z,68.89
2023-05-07T11:21:39.748Z,68.75
2023-05-07T11:24:13.801Z,68.63
2023-05-07T11:26:46.683Z,68.62
2023-05-07T11:28:57.267Z,68.69
2023-05-07T11:31:07.983Z,68.90
2023-05-07T11:33:22.063Z,68.80
2023-05-07T11:35:35.591Z,68.92
2023-05-07T11:37:47.807Z,68.56
2023-05-07T11:40:07.960Z,68.80
2023-05-07T11:42:30.960Z,68.75
2023-05-07T11:44:50.863Z,69.03
2023-05-07T11:47:01.294Z,68.80
2023-05-07T11:49:11.508Z,69.01
2023-05-07T11:51:23.877Z,69.05
2023-05-07T11:53:39.682Z,68.89
2023-05-07T11:55:48.920Z,68.86
2023-05-07T11:57:58.183Z,68.94
2023-05-07T12:00:09.738Z,68.84
2023-05-07T12:02:26.496Z,68.94
2023-05-07T12:04:36.458Z,69.10
2023-05-07T12:06:46.181Z,68.86
2023-05-07T12:08:56.057Z,69.01
2023-05-07T12:11:05.086Z,68.68
2023-05-07T12:13:21.063Z,68.69
2023-05-07T12:15:30.390Z,68.77
2023-05-07T12:17:39.890Z,68.76
2023-05-07T12:19:49.806Z,68.72
2023-05-07T12:21:59.790Z,68.55
2023-05-07T12:24:10.779Z,68.59
2023-05-07T12:26:22.326Z,68.48
2023-05-07T12:28:33.291Z,68.62
2023-05-07T12:30:44.758Z,68.55
2023-05-07T12:32:57.340Z,68.73
2023-05-07T12:35:08.587Z,68.51
2023-05-07T12:37:18.204Z,68.51
2023-05-07T12:39:27.620Z,68.25
2023-05-07T12:41:55.073Z,68.41
2023-05-07T12:44:06.956Z,68.39
2023-05-07T12:46:18.512Z,68.71
2023-05-07T12:48:28.340Z,68.55
2023-05-07T12:50:37.984Z,68.64
2023-05-07T12:52:48.514Z,68.53
2023-05-07T12:54:57.962Z,68.64
2023-05-07T12:57:10.283Z,68.65
2023-05-07T12:59:19.304Z,68.60
2023-05-07T13:01:34.003Z,68.75
2023-05-07T13:03:43.525Z,68.61
2023-05-07T13:05:53.022Z,68.75
2023-05-07T13:08:02.596Z,68.66
2023-05-07T13:10:13.499Z,68.82
2023-05-07T13:12:23.105Z,68.82
2023-05-07T13:14:32.394Z,68.74
2023-05-07T13:16:42.321Z,68.71
2023-05-07T13:18:51.841Z,68.75
2023-05-07T13:21:01.624Z,68.88
2023-05-07T13:23:10.952Z,68.99
2023-05-07T13:25:20.196Z,68.90
2023-05-07T13:27:29.426Z,69.04
2023-05-07T13:29:38.531Z,68.86
2023-05-07T13:31:48.448Z,68.92
2023-05-07T13:33:59.008Z,69.07
2023-05-07T13:36:09.108Z,69.18
2023-05-07T13:38:19.224Z,69.23
2023-05-07T13:40:28.970Z,69.43
2023-05-07T13:42:38.032Z,69.53
2023-05-07T13:44:47.635Z,69.30
2023-05-07T13:46:56.930Z,69.23
2023-05-07T13:49:05.960Z,69.33
2023-05-07T13:51:15.124Z,69.45
2023-05-07T13:53:24.549Z,69.40
2023-05-07T13:55:34.366Z,69.42
2023-05-07T13:57:43.316Z,69.32
2023-05-07T13:59:52.687Z,69.44
2023-05-07T14:02:01.795Z,69.31
2023-05-07T14:04:11.133Z,69.37
2023-05-07T14:06:20.205Z,69.64
2023-05-07T14:08:31.706Z,69.57
2023-05-07T14:10:41.348Z,69.62
2023-05-07T14:12:50.848Z,69.75
2023-05-07T14:15:00.225Z,69.72
2023-05-07T14:17:09.717Z,69.40
2023-05-07T14:19:18.919Z,69.48
2023-05-07T14:21:29.138Z,69.34
2023-05-07T14:23:38.653Z,69.67
2023-05-07T14:25:48.947Z,69.67
2023-05-07T14:27:58.462Z,69.75
2023-05-07T14:30:08.284Z,69.66
2023-05-07T14:32:17.542Z,69.36
2023-05-07T14:34:26.648Z,69.37
2023-05-07T14:36:35.874Z,69.27
2023-05-07T14:38:45.348Z,69.29
2023-05-07T14:40:57.111Z,69.07
2023-05-07T14:43:06.238Z,69.28
2023-05-07T14:45:16.014Z,69.00
2023-05-07T14:47:25.346Z,68.80
2023-05-07T14:49:35.080Z,68.80
2023-05-07T14:51:44.369Z,68.79
2023-05-07T14:53:53.971Z,68.75
2023-05-07T14:56:03.115Z,68.88
2023-05-07T14:58:13.032Z,68.66
2023-05-07T15:00:23.274Z,68.62
2023-05-07T15:02:32.695Z,68.51
2023-05-07T15:04:47.169Z,68.25
2023-05-07T15:06:57.410Z,68.23
2023-05-07T15:09:07.333Z,68.07
2023-05-07T15:11:16.409Z,68.20
2023-05-07T15:13:25.886Z,68.18
2023-05-07T15:15:35.103Z,68.29
2023-05-07T15:17:44.784Z,68.10
2023-05-07T15:19:55.068Z,67.93
2023-05-07T15:22:04.675Z,67.75
2023-05-07T15:24:14.277Z,67.75
2023-05-07T15:26:24.739Z,67.63
2023-05-07T15:28:34.124Z,67.58
2023-05-07T15:30:43.548Z,67.45
2023-05-07T15:32:54.820Z,67.13
2023-05-07T15:35:04.040Z,66.94
2023-05-07T15:37:13.198Z,66.68
2023-05-07T15:39:24.836Z,66.43
2023-05-07T15:41:34.392Z,66.24
2023-05-07T15:43:50.888Z,66.07
2023-05-07T15:46:01.551Z,65.60
2023-05-07T15:48:11.068Z,65.18
2023-05-07T15:50:20.286Z,64.74
2023-05-07T15:52:29.905Z,64.60
2023-05-07T15:54:40.748Z,64.74
2023-05-07T15:56:49.876Z,64.76
2023-05-07T15:58:59.368Z,64.72
2023-05-07T16:01:08.778Z,64.74
2023-05-07T16:03:19.255Z,64.54
2023-05-07T16:05:28.693Z,63.73
2023-05-07T16:07:37.893Z,63.78
2023-05-07T16:09:47.706Z,63.65
2023-05-07T16:11:56.920Z,63.55
2023-05-07T16:14:06.085Z,62.96
2023-05-07T16:16:15.343Z,62.89
2023-05-07T16:18:24.689Z,62.66
2023-05-07T16:20:34.159Z,62.28
2023-05-07T16:22:43.391Z,62.26
2023-05-07T16:24:52.517Z,62.36
2023-05-07T16:27:01.854Z,62.34
2023-05-07T16:29:11.468Z,62.52
2023-05-07T16:31:20.678Z,62.48
2023-05-07T16:33:30.101Z,62.36
2023-05-07T16:35:39.288Z,62.49
2023-05-07T16:37:48.558Z,62.20
2023-05-07T16:40:00.049Z,62.03
2023-05-07T16:42:09.829Z,62.05
2023-05-07T16:44:19.089Z,61.48
2023-05-07T16:46:28.585Z,61.45
2023-05-07T16:48:37.724Z,61.19
2023-05-07T16:50:46.996Z,61.03
2023-05-07T16:52:56.246Z,60.56
2023-05-07T16:55:05.426Z,60.03
2023-05-07T16:57:14.524Z,59.47
2023-05-07T16:59:24.074Z,59.04
2023-05-07T17:01:33.655Z,58.93
2023-05-07T17:03:42.969Z,58.84
2023-05-07T17:05:52.251Z,58.33
2023-05-07T17:08:01.751Z,58.07
2023-05-07T17:10:12.893Z,58.07
2023-05-07T17:12:22.041Z,57.90
2023-05-07T17:14:31.516Z,57.63
2023-05-07T17:16:40.942Z,57.31
2023-05-07T17:18:50.035Z,57.00
2023-05-07T17:20:59.361Z,56.66
2023-05-07T17:23:08.590Z,56.35
2023-05-07T17:25:17.847Z,56.17
2023-05-07T17:27:27.145Z,55.93
2023-05-07T17:29:36.119Z,55.74
2023-05-07T17:31:45.315Z,55.45
2023-05-07T17:33:54.467Z,55.49
2023-05-07T17:36:04.616Z,55.29
2023-05-07T17:38:14.071Z,54.82
2023-05-07T17:40:24.328Z,54.75
2023-05-07T17:42:33.564Z,55.00
2023-05-07T17:44:42.628Z,54.71
2023-05-07T17:46:51.697Z,54.54
2023-05-07T17:49:00.910Z,54.10
2023-05-07T17:51:10.028Z,54.05
2023-05-07T17:53:19.316Z,54.01
2023-05-07T17:55:28.775Z,53.74
2023-05-07T17:57:38.091Z,53.84
2023-05-07T17:59:47.176Z,53.57
2023-05-07T18:01:56.644Z,53.59
2023-05-07T18:04:06.501Z,53.11
2023-05-07T18:06:19.287Z,52.78
2023-05-07T18:08:28.659Z,52.72
2023-05-07T18:10:37.192Z,52.40
2023-05-07T18:12:46.366Z,52.02
2023-05-07T18:14:55.626Z,52.28
2023-05-07T18:17:04.905Z,52.49
2023-05-07T18:19:14.284Z,52.34
2023-05-07T18:21:23.454Z,51.68
2023-05-07T18:23:34.140Z,51.39
2023-05-07T18:25:43.392Z,51.12
2023-05-07T18:27:52.501Z,50.98
2023-05-07T18:30:01.611Z,50.92
2023-05-07T18:32:11.176Z,50.92
2023-05-07T18:34:20.428Z,51.38
2023-05-07T18:36:29.858Z,51.22
2023-05-07T18:38:39.223Z,51.28
2023-05-07T18:40:48.921Z,50.68
2023-05-07T18:42:58.424Z,49.90
2023-05-07T18:45:08.468Z,50.46
2023-05-07T18:47:17.751Z,50.79
2023-05-07T18:49:26.788Z,50.68
2023-05-07T18:51:36.127Z,50.26
2023-05-07T18:53:45.305Z,50.51
2023-05-07T18:55:55.064Z,49.96
2023-05-07T18:58:04.218Z,50.05
2023-05-07T19:00:15.515Z,49.50
2023-05-07T19:02:25.088Z,49.61
2023-05-07T19:04:34.760Z,50.36
2023-05-07T19:06:43.934Z,50.37
2023-05-07T19:08:53.496Z,50.12
2023-05-07T19:11:03.784Z,50.29
2023-05-07T19:13:13.168Z,50.51
2023-05-07T19:15:23.679Z,50.67
2023-05-07T19:17:33.062Z,50.65
2023-05-07T19:19:42.281Z,50.13
2023-05-07T19:21:51.680Z,50.46
2023-05-07T19:24:01.281Z,49.96
2023-05-07T19:26:10.854Z,49.48
2023-05-07T19:28:20.202Z,49.31
2023-05-07T19:30:29.860Z,48.57
2023-05-07T19:32:39.170Z,48.56
2023-05-07T19:34:48.429Z,49.05
2023-05-07T19:36:57.577Z,48.92
2023-05-07T19:39:07.182Z,49.24
2023-05-07T19:41:16.812Z,49.51
2023-05-07T19:43:26.027Z,49.48
2023-05-07T19:45:35.548Z,49.55
2023-05-07T19:47:44.912Z,49.42
2023-05-07T19:49:54.094Z,49.64
2023-05-07T19:52:03.573Z,49.41
2023-05-07T19:54:12.774Z,49.03
2023-05-07T19:56:22.676Z,49.02
2023-05-07T19:58:32.240Z,48.86
2023-05-07T20:00:43.171Z,48.91
2023-05-07T20:02:52.629Z,48.70
2023-05-07T20:05:02.217Z,48.88
2023-05-07T20:07:11.412Z,49.00
2023-05-07T20:09:20.490Z,48.90
2023-05-07T20:11:30.463Z,48.74
2023-05-07T20:13:39.736Z,48.58
2023-05-07T20:15:49.065Z,48.75
2023-05-07T20:17:58.339Z,48.77
2023-05-07T20:20:09.790Z,48.75
2023-05-07T20:22:19.090Z,48.32
2023-05-07T20:24:28.393Z,48.14
2023-05-07T20:26:37.127Z,48.27
2023-05-07T20:28:46.797Z,47.99
2023-05-07T20:30:56.044Z,47.89
2023-05-07T20:33:05.790Z,47.73
2023-05-07T20:35:15.581Z,47.64
2023-05-07T20:37:25.683Z,47.70
2023-05-07T20:39:35.173Z,47.38
2023-05-07T20:41:45.273Z,47.03
2023-05-07T20:43:54.545Z,46.76
2023-05-07T20:46:08.031Z,46.83
2023-05-07T20:48:17.405Z,46.88
2023-05-07T20:50:28.305Z,46.71
2023-05-07T20:52:37.728Z,46.78
2023-05-07T20:54:47.746Z,46.67
2023-05-07T20:56:58.251Z,46.59
2023-05-07T20:59:07.664Z,46.40
2023-05-07T21:01:16.830Z,46.41
2023-05-07T21:03:26.301Z,46.33
2023-05-07T21:05:35.843Z,46.63
2023-05-07T21:07:45.017Z,46.76
2023-05-07T21:09:54.211Z,46.65
2023-05-07T21:12:04.477Z,46.51
2023-05-07T21:14:13.694Z,46.36
2023-05-07T21:16:23.229Z,46.47
2023-05-07T21:18:32.553Z,46.45
2023-05-07T21:20:41.914Z,46.17
2023-05-07T21:22:50.996Z,46.06
2023-05-07T21:25:00.162Z,45.90
2023-05-07T21:27:09.646Z,45.86
2023-05-07T21:29:18.830Z,45.85
2023-05-07T21:31:28.420Z,45.93
2023-05-07T21:33:38.470Z,46.08
2023-05-07T21:35:47.693Z,46.12
2023-05-07T21:37:56.828Z,46.38
2023-05-07T21:40:06.372Z,46.93
2023-05-07T21:42:15.869Z,47.13
2023-05-07T21:44:25.238Z,47.16
2023-05-07T21:46:35.034Z,46.94
2023-05-07T21:48:44.261Z,46.18
2023-05-07T21:51:03.781Z,46.22
2023-05-07T21:53:12.960Z,46.82
2023-05-07T21:55:22.798Z,46.84
2023-05-07T21:57:32.002Z,46.73
2023-05-07T21:59:41.155Z,46.42
2023-05-07T22:01:50.203Z,46.20
2023-05-07T22:03:59.511Z,46.14
2023-05-07T22:06:09.617Z,45.64
2023-05-07T22:08:18.874Z,45.36
2023-05-07T22:10:28.305Z,45.29
2023-05-07T22:12:37.964Z,45.35
2023-05-07T22:14:47.624Z,45.30
2023-05-07T22:16:56.817Z,44.47
2023-05-07T22:19:06.708Z,44.29
2023-05-07T22:21:15.960Z,43.72
2023-05-07T22:23:25.121Z,43.29
2023-05-07T22:25:36.661Z,43.50
2023-05-07T22:27:46.706Z,43.96
2023-05-07T22:29:57.457Z,43.89
2023-05-07T22:32:07.145Z,44.04
2023-05-07T22:34:16.365Z,43.90
2023-05-07T22:36:25.534Z,43.61
2023-05-07T22:38:35.228Z,43.48
2023-05-07T22:40:44.615Z,43.60
2023-05-07T22:42:54.073Z,43.37
2023-05-07T22:45:03.699Z,43.57
2023-05-07T22:47:12.819Z,43.66
2023-05-07T22:49:22.021Z,43.86
2023-05-07T22:51:31.137Z,43.61
2023-05-07T22:53:40.498Z,43.29
2023-05-07T22:55:49.686Z,43.21
2023-05-07T22:57:58.997Z,43.04
2023-05-07T23:00:10.242Z,42.50
2023-05-07T23:02:19.633Z,42.39
2023-05-07T23:04:28.814Z,42.90
2023-05-07T23:06:38.160Z,42.88
2023-05-07T23:08:47.464Z,42.83
2023-05-07T23:10:56.576Z,42.95
2023-05-07T23:13:06.708Z,42.48
2023-05-07T23:15:16.836Z,42.04
2023-05-07T23:17:26.112Z,41.94
2023-05-07T23:19:36.147Z,42.28
2023-05-07T23:21:45.335Z,42.31
2023-05-07T23:23:54.507Z,42.54
2023-05-07T23:26:03.759Z,42.48
2023-05-07T23:28:12.878Z,42.40
2023-05-07T23:30:22.320Z,42.32
2023-05-07T23:32:32.262Z,42.18
2023-05-07T23:34:41.690Z,42.26
2023-05-07T23:36:51.124Z,42.21
2023-05-07T23:39:00.293Z,42.31
2023-05-07T23:41:09.744Z,41.40
2023-05-07T23:43:20.116Z,41.53
2023-05-07T23:45:29.268Z,41.73
2023-05-07T23:47:41.418Z,41.90
2023-05-07T23:49:50.686Z,41.79
2023-05-07T23:51:59.905Z,41.81
2023-05-07T23:54:09.378Z,41.90
2023-05-07T23:56:18.882Z,41.13
2023-05-07T23:58:28.156Z,41.13
